Time;durP1;ratioP1;P1;durP2;ratioP2;P2;SDS_P1;SDS_P2;PMS_P1;PMS_P2;Temp;Humidity;BMP_temperature;BMP_pressure;BME280_temperature;BME280_humidity;BME280_pressure;Samples;Min_cycle;Max_cycle;Signal;HPM_P1;HPM_P2
2023/12/19 00:00:33;;;;;;;3.47;1.90;;;;;;;;;;20852523;28;20210;-83
2023/12/19 00:10:35;;;;;;;3.47;1.73;;;;;;;;;;20868003;28;20288;-83
2023/12/19 00:20:36;;;;;;;1.60;1.20;;;;;;;;;;20858220;23;20284;-70
2023/12/19 00:30:39;;;;;;;2.00;1.30;;;;;;;;;;20842677;28;20221;-70
2023/12/19 00:40:41;;;;;;;2.23;1.37;;;;;;;;;;20828211;28;20244;-70
2023/12/19 00:50:43;;;;;;;2.07;1.50;;;;;;;;;;20798350;28;20219;-70
2023/12/19 01:00:44;;;;;;;2.47;1.50;;;;;;;;;;20809695;28;20705;-70
2023/12/19 01:10:46;;;;;;;1.80;1.27;;;;;;;;;;20825254;28;20287;-70
2023/12/19 01:20:49;;;;;;;1.73;1.33;;;;;;;;;;20823845;28;20291;-70
2023/12/19 01:30:50;;;;;;;3.10;1.13;;;;;;;;;;20851356;28;20256;-70
2023/12/19 01:40:53;;;;;;;2.03;1.40;;;;;;;;;;20833614;28;20271;-70
2023/12/19 01:50:55;;;;;;;1.60;1.13;;;;;;;;;;20853854;28;20209;-70
2023/12/19 02:00:57;;;;;;;2.00;1.37;;;;;;;;;;20854536;28;20205;-70
2023/12/19 02:10:59;;;;;;;3.63;1.63;;;;;;;;;;20856430;28;20350;-70
2023/12/19 02:21:01;;;;;;;2.20;1.60;;;;;;;;;;20850297;28;20290;-70
2023/12/19 02:31:03;;;;;;;2.80;1.57;;;;;;;;;;20879758;28;20918;-70
2023/12/19 02:41:07;;;;;;;3.37;2.27;;;;;;;;;;20853700;28;20665;-70
2023/12/19 02:51:09;;;;;;;3.53;2.67;;;;;;;;;;20854065;28;20832;-70
2023/12/19 03:01:11;;;;;;;3.30;2.33;;;;;;;;;;20873654;28;20222;-70
2023/12/19 03:11:14;;;;;;;3.40;1.93;;;1.10;99.90;;;;;;20835227;22;20226;-68
2023/12/19 03:21:15;;;;;;;3.03;2.00;;;;;;;;;;20832574;28;20214;-69
2023/12/19 03:31:17;;;;;;;4.50;2.33;;;;;;;;;;20846391;28;20225;-69
2023/12/19 03:41:19;;;;;;;2.67;2.00;;;;;;;;;;20828510;28;20213;-69
2023/12/19 03:51:21;;;;;;;3.73;2.50;;;;;;;;;;20799480;28;20288;-69
2023/12/19 04:01:24;;;;;;;2.97;1.93;;;;;;;;;;20817935;28;20289;-69
2023/12/19 04:11:26;;;;;;;4.03;2.37;;;;;;;;;;20801643;28;20233;-69
2023/12/19 04:21:28;;;;;;;3.23;2.10;;;;;;;;;;20811213;28;20210;-69
2023/12/19 04:31:30;;;;;;;4.67;2.50;;;;;;;;;;20763641;28;20222;-69
2023/12/19 04:41:33;;;;;;;3.27;2.23;;;;;;;;;;20796529;28;20244;-69
2023/12/19 04:51:35;;;;;;;4.23;2.90;;;;;;;;;;20776720;28;20276;-69
2023/12/19 05:01:40;;;;;;;3.67;2.27;;;;;;;;;;20779461;28;20567;-69
2023/12/19 05:11:44;;;;;;;2.73;2.13;;;;;;;;;;20759165;28;20214;-69
2023/12/19 05:21:45;;;;;;;2.80;1.90;;;;;;;;;;20803273;28;20202;-70
2023/12/19 05:31:47;;;;;;;3.17;2.07;;;;;;;;;;20776480;28;20289;-69
2023/12/19 05:41:51;;;;;;;3.27;2.07;;;;;;;;;;20833076;28;20240;-70
2023/12/19 05:51:53;;;;;;;2.90;1.97;;;;;;;;;;20769073;28;20253;-70
2023/12/19 06:01:55;;;;;;;3.80;2.20;;;;;;;;;;20802469;28;20226;-70
2023/12/19 06:11:56;;;;;;;4.60;2.77;;;;;;;;;;20800857;28;20219;-70
2023/12/19 06:21:58;;;;;;;2.37;2.03;;;;;;;;;;20792113;28;20297;-70
2023/12/19 06:32:00;;;;;;;3.57;2.00;;;;;;;;;;20754203;28;20218;-70
2023/12/19 06:42:03;;;;;;;2.47;1.87;;;;;;;;;;20789047;28;20259;-70
2023/12/19 06:52:08;;;;;;;2.00;1.37;;;;;;;;;;20812348;28;20213;-70
2023/12/19 07:02:10;;;;;;;2.27;1.43;;;;;;;;;;20733383;28;20261;-70
2023/12/19 07:12:12;;;;;;;2.33;1.53;;;;;;;;;;20793729;28;20238;-69
2023/12/19 07:22:14;;;;;;;1.77;1.37;;;;;;;;;;20784407;28;20701;-69
2023/12/19 07:32:16;;;;;;;3.67;2.00;;;;;;;;;;20810138;28;20249;-69
2023/12/19 07:42:18;;;;;;;2.77;1.93;;;;;;;;;;20816791;28;20230;-69
2023/12/19 07:52:20;;;;;;;2.00;1.73;;;;;;;;;;20787753;28;20701;-70
2023/12/19 08:02:23;;;;;;;2.27;1.30;;;;;;;;;;20806173;28;20252;-69
2023/12/19 08:12:25;;;;;;;2.00;1.50;;;;;;;;;;20724315;28;20246;-70
2023/12/19 08:22:27;;;;;;;1.93;1.57;;;;;;;;;;20768781;28;20207;-70
2023/12/19 08:32:29;;;;;;;2.57;1.43;;;;;;;;;;20789451;28;20217;-70
2023/12/19 08:42:30;;;;;;;4.50;1.87;;;;;;;;;;20762288;28;20214;-70
2023/12/19 08:52:33;;;;;;;2.63;1.87;;;;;;;;;;20815837;28;20592;-71
2023/12/19 09:02:35;;;;;;;3.17;1.40;;;;;;;;;;20778653;28;20214;-70
2023/12/19 09:12:36;;;;;;;2.53;1.70;;;;;;;;;;20784006;28;20766;-71
2023/12/19 09:22:38;;;;;;;1.47;1.27;;;;;;;;;;20779720;23;20293;-82
2023/12/19 09:32:40;;;;;;;3.23;2.17;;;1.70;99.90;;;;;;20730165;28;20249;-82
2023/12/19 09:42:42;;;;;;;1.93;1.40;;;1.70;99.90;;;;;;20804551;28;20207;-81
2023/12/19 09:52:45;;;;;;;1.47;1.10;;;;;;;;;;20804514;28;20210;-83
2023/12/19 10:02:47;;;;;;;2.33;1.40;;;;;;;;;;20855871;28;20213;-83
2023/12/19 10:12:50;;;;;;;2.87;1.57;;;2.40;99.90;;;;;;20815041;28;20684;-82
2023/12/19 10:23:01;;;;;;;1.13;0.80;;;2.60;99.90;;;;;;20820451;28;20291;-81
2023/12/19 10:33:04;;;;;;;1.63;1.27;;;;;;;;;;20854197;28;20224;-82
2023/12/19 10:43:06;;;;;;;1.73;1.10;;;;;;;;;;20852441;28;20567;-81
2023/12/19 10:53:09;;;;;;;2.17;1.27;;;2.40;99.90;;;;;;20806935;28;20234;-80
2023/12/19 11:03:11;;;;;;;0.87;0.53;;;;;;;;;;20794908;28;20210;-80
2023/12/19 11:13:13;;;;;;;1.10;0.70;;;;;;;;;;20847784;28;20230;-80
2023/12/19 11:23:18;;;;;;;1.90;1.00;;;;;;;;;;20789969;28;20585;-82
2023/12/19 11:33:31;;;;;;;1.37;0.90;;;2.90;99.90;;;;;;20827933;28;20329;-81
2023/12/19 11:43:35;;;;;;;1.37;0.80;;;;;;;;;;20825444;28;20699;-81
2023/12/19 11:53:40;;;;;;;2.07;0.90;;;;;;;;;;20828169;28;20806;-80
2023/12/19 12:03:42;;;;;;;1.50;0.90;;;;;;;;;;20817001;28;20227;-80
2023/12/19 12:13:59;;;;;;;0.83;0.67;;;;;;;;;;20789024;28;20230;-80
2023/12/19 12:24:01;;;;;;;0.63;0.50;;;;;;;;;;20810094;28;20245;-80
2023/12/19 12:34:05;;;;;;;0.93;0.77;;;;;;;;;;20827794;28;20223;-81
2023/12/19 12:44:11;;;;;;;0.67;0.50;;;;;;;;;;20814090;28;20252;-83
2023/12/19 12:54:18;;;;;;;1.40;0.80;;;3.30;99.90;;;;;;20818168;28;20222;-82
2023/12/19 13:04:22;;;;;;;1.27;0.90;;;;;;;;;;20802031;28;20695;-82
2023/12/19 13:14:24;;;;;;;1.17;0.80;;;;;;;;;;20794350;28;20761;-81
2023/12/19 13:24:26;;;;;;;1.13;0.73;;;;;;;;;;20806438;28;20230;-83
2023/12/19 13:34:27;;;;;;;1.43;1.00;;;;;;;;;;20803703;28;20222;-83
2023/12/19 13:44:29;;;;;;;0.60;0.53;;;;;;;;;;20809291;28;20214;-82
2023/12/19 13:54:31;;;;;;;1.27;0.77;;;;;;;;;;20822563;28;20234;-81
2023/12/19 14:04:33;;;;;;;0.60;0.50;;;;;;;;;;20822953;28;20206;-82
2023/12/19 14:14:35;;;;;;;0.93;0.70;;;;;;;;;;20801643;28;20276;-81
2023/12/19 14:24:39;;;;;;;1.00;0.70;;;;;;;;;;20808392;28;20242;-82
2023/12/19 14:34:41;;;;;;;1.67;0.90;;;3.00;99.90;;;;;;20791567;28;20631;-82
2023/12/19 14:44:43;;;;;;;1.50;0.93;;;;;;;;;;20797611;28;20275;-81
2023/12/19 14:54:46;;;;;;;1.03;0.60;;;3.00;99.90;;;;;;20786743;28;20219;-82
2023/12/19 15:04:48;;;;;;;0.77;0.53;;;;;;;;;;20801193;28;20226;-80
2023/12/19 15:14:52;;;;;;;0.90;0.80;;;;;;;;;;20816832;28;20223;-82
2023/12/19 15:24:54;;;;;;;3.60;2.63;;;;;;;;;;20844473;28;20758;-82
2023/12/19 15:34:55;;;;;;;1.20;0.60;;;;;;;;;;20817383;28;20583;-82
2023/12/19 15:44:57;;;;;;;1.20;0.80;;;;;;;;;;20806783;28;20211;-83
2023/12/19 15:55:01;;;;;;;1.90;0.97;;;;;;;;;;20856818;28;20283;-84
2023/12/19 16:05:03;;;;;;;1.53;1.00;;;;;;;;;;20834183;28;20265;-82
2023/12/19 16:15:06;;;;;;;1.00;0.67;;;;;;;;;;20838481;28;20221;-83
2023/12/19 16:25:08;;;;;;;0.70;0.50;;;;;;;;;;20850691;28;20218;-83
2023/12/19 16:35:10;;;;;;;0.60;0.60;;;;;;;;;;20825465;28;20209;-82
2023/12/19 16:45:12;;;;;;;1.70;1.00;;;;;;;;;;20817857;28;20524;-81
2023/12/19 16:55:13;;;;;;;0.97;0.70;;;;;;;;;;20826304;28;20761;-80
2023/12/19 17:05:15;;;;;;;1.60;1.07;;;;;;;;;;20811021;28;20810;-79
2023/12/19 17:15:17;;;;;;;1.03;0.60;;;;;;;;;;20722216;28;20230;-84
2023/12/19 17:25:19;;;;;;;1.53;1.00;;;;;;;;;;20626598;28;20674;-83
2023/12/19 17:35:21;;;;;;;1.93;1.30;;;;;;;;;;20550964;28;20280;-80
2023/12/19 17:45:23;;;;;;;2.20;1.30;;;;;;;;;;20585848;28;20238;-84
2023/12/19 17:55:25;;;;;;;2.77;1.80;;;;;;;;;;20685822;28;20234;-81
2023/12/19 18:05:27;;;;;;;2.17;1.17;;;;;;;;;;20726176;28;20251;-81
2023/12/19 18:15:28;;;;;;;3.53;0.87;;;;;;;;;;20731804;28;21080;-82
2023/12/19 18:25:30;;;;;;;0.90;0.63;;;;;;;;;;20630520;28;20288;-81
2023/12/19 18:35:32;;;;;;;0.57;0.53;;;;;;;;;;20724684;28;20234;-81
2023/12/19 18:45:34;;;;;;;1.03;0.57;;;;;;;;;;20664239;28;20239;-80
2023/12/19 18:55:37;;;;;;;1.20;0.70;;;;;;;;;;20595088;28;20313;-81
2023/12/19 19:05:38;;;;;;;0.37;0.37;;;;;;;;;;20805942;28;20215;-81
2023/12/19 19:15:41;;;;;;;0.20;0.20;;;;;;;;;;20808840;28;20244;-81
2023/12/19 19:25:43;;;;;;;1.00;0.50;;;;;;;;;;20819405;28;20648;-82
2023/12/19 19:35:45;;;;;;;0.67;0.60;;;;;;;;;;20824792;28;20219;-80
2023/12/19 19:45:46;;;;;;;0.23;0.23;;;;;;;;;;20818409;28;20285;-82
2023/12/19 19:55:48;;;;;;;0.77;0.40;;;;;;;;;;20784303;28;20219;-81
2023/12/19 20:05:51;;;;;;;0.00;0.00;;;4.30;99.90;;;;;;20825213;28;20306;-81
2023/12/19 20:15:52;;;;;;;0.17;0.17;;;;;;;;;;20794088;28;20702;-81
2023/12/19 20:25:55;;;;;;;0.97;0.50;;;;;;;;;;20789666;28;20281;-83
2023/12/19 20:35:57;;;;;;;1.07;0.70;;;;;;;;;;20796018;28;20276;-86
2023/12/19 20:45:59;;;;;;;1.10;0.57;;;;;;;;;;20806721;28;20737;-84
2023/12/19 20:56:00;;;;;;;0.20;0.20;;;;;;;;;;20812913;28;20234;-84
2023/12/19 21:06:03;;;;;;;0.93;0.40;;;;;;;;;;20812407;28;20223;-83
2023/12/19 21:16:05;;;;;;;9.03;0.90;;;;;;;;;;20806274;28;20745;-83
2023/12/19 21:26:07;;;;;;;1.83;0.70;;;;;;;;;;20810997;28;20227;-84
2023/12/19 21:36:09;;;;;;;1.00;0.50;;;;;;;;;;20805597;28;20614;-83
2023/12/19 21:46:11;;;;;;;0.80;0.60;;;;;;;;;;20827215;28;20737;-83
2023/12/19 21:56:13;;;;;;;0.83;0.53;;;;;;;;;;20816683;28;20684;-84
2023/12/19 22:06:15;;;;;;;3.20;1.20;;;;;;;;;;20815948;28;20193;-83
2023/12/19 22:16:20;;;;;;;2.17;1.27;;;;;;;;;;20811169;28;20280;-84
2023/12/19 22:26:21;;;;;;;0.60;0.40;;;;;;;;;;20819511;28;20237;-84
2023/12/19 22:36:23;;;;;;;2.73;1.10;;;;;;;;;;20812170;28;20695;-84
2023/12/19 22:46:25;;;;;;;3.50;2.00;;;;;;;;;;20798561;28;20215;-85
2023/12/19 22:56:27;;;;;;;3.27;1.80;;;;;;;;;;20810108;28;20916;-84
2023/12/19 23:06:31;;;;;;;0.50;0.30;;;;;;;;;;20811017;28;20281;-84
2023/12/19 23:16:33;;;;;;;0.40;0.37;;;;;;;;;;20814231;28;20262;-82
2023/12/19 23:26:37;;;;;;;0.73;0.40;;;;;;;;;;20846592;28;20242;-85
2023/12/19 23:36:38;;;;;;;0.20;0.20;;;;;;;;;;20782338;28;20227;-82
2023/12/19 23:46:41;;;;;;;0.43;0.37;;;;;;;;;;20815963;28;20264;-84
2023/12/19 23:56:43;;;;;;;0.93;0.20;;;;;;;;;;20804477;28;20221;-82
